createdAt,value
2023-04-14T00:00:40.000Z,3.95
2023-04-14T00:05:33.000Z,3.97
2023-04-14T00:10:27.000Z,3.94
2023-04-14T00:15:21.000Z,3.83
2023-04-14T00:20:15.000Z,3.66
2023-04-14T00:25:12.000Z,3.46
2023-04-14T00:30:03.000Z,3.28
2023-04-14T00:34:57.000Z,3.17
2023-04-14T00:39:52.000Z,3.24
2023-04-14T00:44:43.000Z,3.08
2023-04-14T00:49:38.000Z,2.98
2023-04-14T00:54:29.000Z,2.8
2023-04-14T00:59:24.000Z,2.63
2023-04-14T01:04:18.000Z,2.52
2023-04-14T01:09:12.000Z,2.43
2023-04-14T01:14:09.000Z,2.36
2023-04-14T01:19:00.000Z,2.31
2023-04-14T01:23:54.000Z,2.14
2023-04-14T01:28:48.000Z,2.11
2023-04-14T01:33:42.000Z,2.11
2023-04-14T01:38:36.000Z,2.16
2023-04-14T01:43:30.000Z,2.19
2023-04-14T01:48:24.000Z,2.21
2023-04-14T01:53:18.000Z,2.19
2023-04-14T01:58:12.000Z,2.21
2023-04-14T02:03:06.000Z,2.08
2023-04-14T02:07:58.000Z,2.06
2023-04-14T02:12:52.000Z,1.95
2023-04-14T02:17:46.000Z,1.87
2023-04-14T02:22:40.000Z,1.82
2023-04-14T02:27:34.000Z,1.74
2023-04-14T02:32:29.000Z,1.63
2023-04-14T02:37:21.000Z,1.53
2023-04-14T02:42:13.000Z,1.52
2023-04-14T02:47:07.000Z,1.48
2023-04-14T02:52:00.000Z,1.48
2023-04-14T02:56:54.000Z,1.42
2023-04-14T03:01:48.000Z,1.39
2023-04-14T03:06:44.000Z,1.28
2023-04-14T03:11:35.000Z,1.36
2023-04-14T03:16:29.000Z,1.4
2023-04-14T03:21:24.000Z,1.26
2023-04-14T03:26:18.000Z,1.14
2023-04-14T03:31:12.000Z,1.08
2023-04-14T03:36:06.000Z,1
2023-04-14T03:40:59.000Z,1.05
2023-04-14T03:45:53.000Z,1.06
2023-04-14T03:50:47.000Z,1.12
2023-04-14T03:55:41.000Z,1.07
2023-04-14T04:00:34.000Z,0.93
2023-04-14T04:05:29.000Z,0.92
2023-04-14T04:10:23.000Z,0.85
2023-04-14T04:15:17.000Z,0.72
2023-04-14T04:20:11.000Z,0.76
2023-04-14T04:25:05.000Z,0.7
2023-04-14T04:29:58.000Z,0.62
2023-04-14T04:34:52.000Z,0.59
2023-04-14T04:39:46.000Z,0.63
2023-04-14T04:44:40.000Z,0.69
2023-04-14T04:49:34.000Z,0.7
2023-04-14T04:54:27.000Z,0.73
2023-04-14T04:59:21.000Z,0.75
2023-04-14T05:04:15.000Z,0.71
2023-04-14T05:09:09.000Z,0.77
2023-04-14T05:14:03.000Z,0.78
2023-04-14T05:18:57.000Z,0.85
2023-04-14T05:23:48.000Z,1.29
2023-04-14T05:28:43.000Z,1.45
2023-04-14T05:33:37.000Z,1.68
2023-04-14T05:38:31.000Z,2.04
2023-04-14T05:43:26.000Z,2.46
2023-04-14T05:48:19.000Z,2.8
2023-04-14T05:53:12.000Z,3
2023-04-14T05:58:07.000Z,3.18
2023-04-14T06:03:00.000Z,3.47
2023-04-14T06:07:53.000Z,3.69
2023-04-14T06:12:46.000Z,3.84
2023-04-14T06:17:40.000Z,3.97
2023-04-14T06:22:34.000Z,4.03
2023-04-14T06:27:28.000Z,4.16
2023-04-14T06:32:21.000Z,4.29
2023-04-14T06:37:15.000Z,4.56
2023-04-14T06:42:09.000Z,4.67
2023-04-14T06:47:03.000Z,4.77
2023-04-14T06:51:58.000Z,4.79
2023-04-14T06:56:49.000Z,4.66
2023-04-14T07:01:43.000Z,4.66
2023-04-14T07:06:38.000Z,4.89
2023-04-14T07:11:31.000Z,4.92
2023-04-14T07:16:26.000Z,4.87
2023-04-14T07:21:20.000Z,5.03
2023-04-14T07:26:14.000Z,5.28
2023-04-14T07:31:09.000Z,5.44
2023-04-14T07:36:03.000Z,5.52
2023-04-14T07:40:57.000Z,5.59
2023-04-14T07:45:50.000Z,5.93
2023-04-14T07:50:45.000Z,6.23
2023-04-14T07:55:39.000Z,6.64
2023-04-14T08:00:32.000Z,6.85
2023-04-14T08:05:27.000Z,6.96
2023-04-14T08:10:20.000Z,7.5
2023-04-14T08:15:15.000Z,7.92
2023-04-14T08:20:09.000Z,8.31
2023-04-14T08:25:06.000Z,8.77
2023-04-14T08:29:58.000Z,9.14
2023-04-14T08:34:52.000Z,9.27
2023-04-14T08:39:46.000Z,9.63
2023-04-14T08:44:41.000Z,9.39
2023-04-14T08:49:35.000Z,9.56
2023-04-14T08:54:30.000Z,9.96
2023-04-14T08:59:24.000Z,10.18
2023-04-14T09:04:18.000Z,9.97
2023-04-14T10:47:11.000Z,21.22
2023-04-14T10:52:06.000Z,17.62
2023-04-14T10:57:01.000Z,20.33
2023-04-14T11:01:56.000Z,20.19
2023-04-14T11:06:50.000Z,15.7
2023-04-14T11:11:42.000Z,14.22
2023-04-14T11:16:35.000Z,17.32
2023-04-14T11:21:30.000Z,21.41
2023-04-14T11:26:29.000Z,23.09
2023-04-14T11:31:23.000Z,20.46
2023-04-14T11:36:16.000Z,18.78
2023-04-14T11:41:11.000Z,15.49
2023-04-14T11:46:02.000Z,14.59
2023-04-14T11:50:55.000Z,19.35
2023-04-14T11:55:50.000Z,19.16
2023-04-14T12:00:45.000Z,20.55
2023-04-14T12:05:41.000Z,21.93
2023-04-14T12:10:38.000Z,23.36
2023-04-14T12:15:29.000Z,23.62
2023-04-14T12:20:24.000Z,21.52
2023-04-14T12:25:18.000Z,18.61
2023-04-14T12:30:12.000Z,18.56
2023-04-14T12:35:05.000Z,18.53
2023-04-14T12:39:57.000Z,19.68
2023-04-14T12:44:52.000Z,22.87
2023-04-14T12:49:47.000Z,22.79
2023-04-14T12:54:41.000Z,19.85
2023-04-14T12:59:35.000Z,20.05
2023-04-14T13:04:27.000Z,16.94
2023-04-14T13:09:20.000Z,16.72
2023-04-14T13:14:13.000Z,17.14
2023-04-14T13:19:07.000Z,17.96
2023-04-14T13:24:01.000Z,16.77
2023-04-14T13:28:54.000Z,14.58
2023-04-14T13:33:47.000Z,14.7
2023-04-14T13:38:40.000Z,16.32
2023-04-14T13:43:34.000Z,16.85
2023-04-14T13:48:29.000Z,16.44
2023-04-14T13:53:23.000Z,19.37
2023-04-14T13:58:17.000Z,22.37
2023-04-14T14:03:13.000Z,22.45
2023-04-14T14:08:09.000Z,22.6
2023-04-14T14:13:03.000Z,19.93
2023-04-14T14:17:57.000Z,23.06
2023-04-14T14:22:52.000Z,22.62
2023-04-14T14:27:47.000Z,22.74
2023-04-14T14:32:43.000Z,20.39
2023-04-14T14:37:35.000Z,19.79
2023-04-14T14:42:29.000Z,17.18
2023-04-14T14:47:22.000Z,18.12
2023-04-14T14:52:14.000Z,21.78
2023-04-14T14:57:09.000Z,24.31
2023-04-14T15:02:07.000Z,20.9
2023-04-14T15:06:58.000Z,16.01
2023-04-14T15:11:50.000Z,15.5
2023-04-14T15:16:42.000Z,18.67
2023-04-14T15:21:39.000Z,20.75
2023-04-14T15:26:31.000Z,22.86
2023-04-14T15:31:27.000Z,23.68
2023-04-14T15:36:22.000Z,23.13
2023-04-14T15:41:15.000Z,25.22
2023-04-14T15:46:10.000Z,26.81
2023-04-14T15:51:05.000Z,25.41
2023-04-14T15:56:00.000Z,25.05
2023-04-14T16:00:54.000Z,22.23
2023-04-14T16:05:46.000Z,17.99
2023-04-14T16:10:39.000Z,17.63
2023-04-14T16:15:31.000Z,16.71
2023-04-14T16:20:24.000Z,16.15
2023-04-14T16:25:14.000Z,19.65
2023-04-14T16:30:09.000Z,21.32
2023-04-14T16:35:04.000Z,22.69
2023-04-14T16:39:59.000Z,19.5
2023-04-14T16:44:53.000Z,17.18
2023-04-14T16:49:45.000Z,17.04
2023-04-14T16:54:38.000Z,15.61
2023-04-14T16:59:32.000Z,15.49
2023-04-14T17:04:26.000Z,14.63
2023-04-14T17:09:19.000Z,14.9
2023-04-14T17:14:13.000Z,14.99
2023-04-14T17:19:07.000Z,14.6
2023-04-14T17:24:01.000Z,14.2
2023-04-14T17:28:56.000Z,14.3
2023-04-14T17:33:48.000Z,17.27
2023-04-14T17:38:44.000Z,19.62
2023-04-14T17:43:33.000Z,20.72
2023-04-14T17:48:28.000Z,18.31
2023-04-14T17:53:23.000Z,15.46
2023-04-14T17:58:16.000Z,14.02
2023-04-14T18:03:09.000Z,13.38
2023-04-14T18:08:03.000Z,12.99
2023-04-14T18:12:57.000Z,12.65
2023-04-14T18:17:50.000Z,12.29
2023-04-14T18:22:44.000Z,12.01
2023-04-14T18:27:38.000Z,11.66
2023-04-14T18:32:32.000Z,11.36
2023-04-14T18:37:26.000Z,11.17
2023-04-14T18:42:20.000Z,10.81
2023-04-14T18:47:15.000Z,10.58
2023-04-14T18:52:09.000Z,10.16
2023-04-14T18:57:05.000Z,9.94
2023-04-14T19:01:58.000Z,9.69
2023-04-14T19:06:52.000Z,9.65
2023-04-14T19:11:45.000Z,9.51
2023-04-14T19:16:39.000Z,9.36
2023-04-14T19:21:33.000Z,9.27
2023-04-14T19:26:27.000Z,9.03
2023-04-14T19:31:22.000Z,8.86
2023-04-14T19:36:15.000Z,8.77
2023-04-14T19:41:09.000Z,8.53
2023-04-14T19:46:03.000Z,8.38
2023-04-14T19:50:56.000Z,8.21
2023-04-14T19:55:50.000Z,8.08
2023-04-14T20:00:45.000Z,7.9
2023-04-14T20:05:39.000Z,7.85
2023-04-14T20:10:32.000Z,7.82
2023-04-14T20:15:27.000Z,7.67
2023-04-14T20:20:21.000Z,7.46
2023-04-14T20:25:15.000Z,7.33
2023-04-14T20:30:08.000Z,7.28
2023-04-14T20:35:03.000Z,7.12
2023-04-14T20:39:57.000Z,7.1
2023-04-14T20:44:50.000Z,6.9
2023-04-14T20:49:44.000Z,6.87
2023-04-14T20:54:38.000Z,6.81
2023-04-14T20:59:32.000Z,6.53
2023-04-14T21:04:26.000Z,6.35
2023-04-14T21:09:19.000Z,6.38
2023-04-14T21:14:12.000Z,6.39
2023-04-14T21:19:06.000Z,6.21
2023-04-14T21:23:58.000Z,6.11
2023-04-14T21:28:52.000Z,6.1
2023-04-14T21:33:43.000Z,6.14
2023-04-14T21:38:37.000Z,6.04
2023-04-14T21:43:28.000Z,5.84
2023-04-14T21:48:22.000Z,5.69
2023-04-14T21:53:16.000Z,5.6
2023-04-14T21:58:07.000Z,5.6
2023-04-14T22:03:02.000Z,5.58
2023-04-14T22:07:56.000Z,5.46
2023-04-14T22:12:49.000Z,5.53
2023-04-14T22:17:43.000Z,5.45
2023-04-14T22:22:38.000Z,5.31
2023-04-14T22:27:31.000Z,5.2
2023-04-14T22:32:25.000Z,5.14
2023-04-14T22:37:19.000Z,5.06
2023-04-14T22:42:13.000Z,4.9
2023-04-14T22:47:07.000Z,4.78
2023-04-14T22:52:01.000Z,4.67
2023-04-14T22:56:55.000Z,4.74
2023-04-14T23:01:49.000Z,4.71
2023-04-14T23:06:41.000Z,4.77
2023-04-14T23:11:36.000Z,4.68
2023-04-14T23:16:30.000Z,4.52
2023-04-14T23:21:24.000Z,4.41
2023-04-14T23:26:17.000Z,4.28
2023-04-14T23:31:11.000Z,4.16
2023-04-14T23:36:05.000Z,4.01
2023-04-14T23:40:59.000Z,3.93
2023-04-14T23:45:53.000Z,3.85
2023-04-14T23:50:44.000Z,3.71
2023-04-14T23:55:38.000Z,3.57
